Time;durP1;ratioP1;P1;durP2;ratioP2;P2;SDS_P1;SDS_P2;PMS_P1;PMS_P2;Temp;Humidity;BMP_temperature;BMP_pressure;BME280_temperature;BME280_humidity;BME280_pressure;Samples;Min_cycle;Max_cycle;Signal;HPM_P1;HPM_P2
2022/11/30 00:01:28;;;;;;;96.70;35.50;;;8.40;1.00;;;;;;4954231;28;20192;-85
2022/11/30 00:03:55;;;;;;;96.77;35.43;;;8.40;1.00;;;;;;4959476;28;20901;-86
2022/11/30 00:06:22;;;;;;;96.13;33.37;;;8.40;1.00;;;;;;4959472;28;20211;-86
2022/11/30 00:08:55;;;;;;;86.07;32.88;;;8.40;1.00;;;;;;4958921;28;20475;-86
2022/11/30 00:11:22;;;;;;;91.43;32.50;;;8.40;1.00;;;;;;4961126;28;20551;-87
2022/11/30 00:13:48;;;;;;;81.97;33.95;;;8.40;1.00;;;;;;4948915;29;20496;-86
2022/11/30 00:16:13;;;;;;;82.30;30.53;;;8.40;1.00;;;;;;4961132;28;20617;-85
2022/11/30 00:18:39;;;;;;;77.97;30.73;;;8.40;1.00;;;;;;4957133;28;20517;-85
2022/11/30 00:21:09;;;;;;;88.00;31.73;;;8.40;1.00;;;;;;4954303;28;20268;-85
2022/11/30 00:23:36;;;;;;;69.97;27.42;;;8.40;1.00;;;;;;4956899;28;20458;-85
2022/11/30 00:26:04;;;;;;;79.70;30.33;;;8.30;1.00;;;;;;4957696;28;20209;-86
2022/11/30 00:28:31;;;;;;;92.32;32.10;;;8.30;1.00;;;;;;4947428;28;20452;-86
2022/11/30 00:30:58;;;;;;;81.18;30.23;;;8.30;1.00;;;;;;4960918;28;20181;-86
2022/11/30 00:33:23;;;;;;;90.65;33.45;;;8.30;1.00;;;;;;4958599;28;20256;-86
2022/11/30 00:36:00;;;;;;;90.87;33.30;;;8.30;1.00;;;;;;4960063;28;20703;-86
2022/11/30 00:38:26;;;;;;;89.20;29.75;;;8.30;1.00;;;;;;4946015;28;20177;-86
2022/11/30 00:40:51;;;;;;;87.60;33.30;;;8.30;1.00;;;;;;4961880;28;20177;-87
2022/11/30 00:43:17;;;;;;;104.33;34.00;;;8.30;1.00;;;;;;4957219;28;20236;-86
2022/11/30 00:45:43;;;;;;;113.80;32.90;;;8.30;1.00;;;;;;4959216;28;20220;-86
2022/11/30 00:48:08;;;;;;;98.63;34.93;;;8.30;1.00;;;;;;4959738;28;20196;-86
2022/11/30 00:50:34;;;;;;;91.43;33.17;;;8.30;1.00;;;;;;4959227;28;20756;-86
2022/11/30 00:52:59;;;;;;;86.27;32.23;;;8.30;1.00;;;;;;4960356;28;20675;-86
2022/11/30 00:55:26;;;;;;;92.43;33.70;;;8.30;1.00;;;;;;4957101;28;20209;-85
2022/11/30 00:57:52;;;;;;;94.67;34.00;;;8.30;1.00;;;;;;4958485;28;20184;-85
2022/11/30 01:00:18;;;;;;;98.57;34.80;;;8.30;1.00;;;;;;4960535;28;20443;-86
2022/11/30 01:02:44;;;;;;;102.63;36.53;;;8.30;1.00;;;;;;4948643;29;20586;-86
2022/11/30 01:05:09;;;;;;;108.27;33.97;;;8.30;1.00;;;;;;4958941;28;20510;-86
2022/11/30 01:07:35;;;;;;;108.13;34.77;;;8.40;1.00;;;;;;4959360;28;20448;-85
2022/11/30 01:10:01;;;;;;;122.57;37.97;;;8.40;1.00;;;;;;4959411;28;20508;-85
2022/11/30 01:12:27;;;;;;;121.27;37.10;;;8.40;1.00;;;;;;4953762;28;20193;-86
2022/11/30 01:14:52;;;;;;;141.63;39.97;;;8.40;1.00;;;;;;4958473;28;20971;-86
2022/11/30 01:17:18;;;;;;;139.80;40.13;;;8.40;1.00;;;;;;4942129;29;20440;-86
2022/11/30 01:19:43;;;;;;;138.17;40.97;;;8.40;1.00;;;;;;4958363;28;20200;-85
2022/11/30 01:22:09;;;;;;;130.53;41.10;;;8.40;1.00;;;;;;4959627;28;20582;-87
2022/11/30 01:24:34;;;;;;;115.87;38.37;;;8.50;1.00;;;;;;4959245;28;20197;-85
2022/11/30 01:27:00;;;;;;;108.37;36.67;;;8.50;1.00;;;;;;4957249;28;20189;-87
2022/11/30 01:29:28;;;;;;;95.13;34.97;;;8.50;1.00;;;;;;4954141;28;20217;-86
2022/11/30 01:31:53;;;;;;;96.90;36.75;;;8.50;1.00;;;;;;4959660;28;20196;-86
2022/11/30 01:34:20;;;;;;;102.50;35.60;;;8.50;1.00;;;;;;4959604;28;20282;-83
2022/11/30 01:36:47;;;;;;;82.72;32.92;;;8.50;1.00;;;;;;4958829;28;20186;-86
2022/11/30 01:39:13;;;;;;;80.50;33.17;;;8.50;1.00;;;;;;4958131;28;20278;-86
2022/11/30 01:41:38;;;;;;;89.53;31.97;;;8.50;1.00;;;;;;4941473;29;20473;-86
2022/11/30 01:44:04;;;;;;;85.27;33.43;;;8.50;1.00;;;;;;4966379;28;20613;-87
2022/11/30 01:46:39;;;;;;;101.87;36.30;;;8.60;1.00;;;;;;4971260;28;20214;-85
2022/11/30 01:49:10;;;;;;;96.73;37.07;;;8.60;1.00;;;;;;4966278;28;20204;-84
2022/11/30 01:51:52;;;;;;;110.03;40.60;;;8.60;1.00;;;;;;4955605;28;20435;-85
2022/11/30 01:54:22;;;;;;;96.87;37.33;;;8.60;1.00;;;;;;4954112;28;20486;-84
2022/11/30 01:56:55;;;;;;;122.53;36.77;;;8.50;1.00;;;;;;4960044;28;20478;-85
2022/11/30 01:59:23;;;;;;;126.57;39.40;;;8.50;1.00;;;;;;4954184;28;20443;-84
2022/11/30 02:01:50;;;;;;;123.22;41.25;;;8.50;1.00;;;;;;4954094;28;20185;-84
2022/11/30 02:04:23;;;;;;;116.30;40.10;;;8.50;1.00;;;;;;4956277;28;20601;-84
2022/11/30 02:06:49;;;;;;;114.32;39.88;;;8.50;1.00;;;;;;4955311;28;20740;-84
2022/11/30 02:09:16;;;;;;;109.97;39.30;;;8.50;1.00;;;;;;4960659;28;20221;-86
2022/11/30 02:11:42;;;;;;;110.80;40.57;;;8.50;1.00;;;;;;4956626;28;20209;-84
2022/11/30 02:14:12;;;;;;;109.70;39.60;;;8.60;1.00;;;;;;4939641;29;20476;-84
2022/11/30 02:16:43;;;;;;;115.18;36.63;;;8.50;1.00;;;;;;4954873;28;20216;-85
2022/11/30 02:19:45;;;;;;;118.27;37.50;;;8.50;1.00;;;;;;4949409;28;20197;-84
2022/11/30 02:22:30;;;;;;;119.05;39.65;;;8.50;1.00;;;;;;4952351;29;20523;-84
2022/11/30 02:25:33;;;;;;;103.72;40.47;;;8.50;1.00;;;;;;4950248;28;20205;-84
2022/11/30 02:28:07;;;;;;;107.50;37.17;;;8.50;1.00;;;;;;4956660;28;20199;-84
2022/11/30 02:30:34;;;;;;;96.20;36.73;;;8.50;1.00;;;;;;4954714;28;20236;-84
2022/11/30 02:33:13;;;;;;;93.47;36.45;;;8.40;1.00;;;;;;4956534;28;20835;-84
2022/11/30 02:35:42;;;;;;;92.93;33.97;;;8.40;1.00;;;;;;4955068;28;20208;-85
2022/11/30 02:38:09;;;;;;;101.63;37.72;;;8.40;1.00;;;;;;4953735;28;20855;-85
2022/11/30 02:40:35;;;;;;;101.13;36.10;;;8.40;1.00;;;;;;4955376;28;20197;-85
2022/11/30 02:43:03;;;;;;;88.63;35.00;;;8.40;1.00;;;;;;4955049;28;20192;-84
2022/11/30 02:45:47;;;;;;;97.70;37.30;;;8.50;1.00;;;;;;4954261;28;20209;-85
2022/11/30 02:48:18;;;;;;;117.80;35.00;;;8.50;1.00;;;;;;4955440;28;20963;-84
2022/11/30 02:50:51;;;;;;;99.40;38.30;;;8.50;1.00;;;;;;4955179;28;20450;-85
2022/11/30 02:53:18;;;;;;;99.10;36.08;;;8.50;1.00;;;;;;4955625;28;20467;-84
2022/11/30 02:55:43;;;;;;;96.88;34.42;;;8.50;1.00;;;;;;4957481;28;20200;-84
2022/11/30 02:58:09;;;;;;;106.47;35.30;;;8.50;1.00;;;;;;4959081;28;20181;-84
2022/11/30 03:00:35;;;;;;;83.60;34.40;;;8.50;1.00;;;;;;4956341;28;20204;-85
2022/11/30 03:03:00;;;;;;;96.43;32.90;;;8.50;1.00;;;;;;4958804;28;20436;-85
2022/11/30 03:05:26;;;;;;;87.90;33.53;;;8.50;1.00;;;;;;4956653;28;20217;-85
2022/11/30 03:07:51;;;;;;;88.13;34.73;;;8.50;1.00;;;;;;4958505;28;20197;-85
2022/11/30 03:10:17;;;;;;;88.93;35.23;;;8.50;1.00;;;;;;4960030;28;20209;-86
2022/11/30 03:12:43;;;;;;;98.30;36.73;;;8.50;1.00;;;;;;4956337;28;20185;-86
2022/11/30 03:15:08;;;;;;;94.23;35.27;;;8.40;1.00;;;;;;4957906;28;20264;-85
2022/11/30 03:17:34;;;;;;;88.17;34.93;;;8.50;1.00;;;;;;4958706;28;20212;-86
2022/11/30 03:19:59;;;;;;;80.13;34.17;;;8.50;1.00;;;;;;4961228;28;20436;-86
2022/11/30 03:22:25;;;;;;;80.83;33.77;;;8.50;1.00;;;;;;4959888;28;20195;-84
2022/11/30 03:24:51;;;;;;;90.00;33.40;;;8.50;1.00;;;;;;4956741;28;20689;-84
2022/11/30 03:27:16;;;;;;;93.00;36.10;;;8.50;1.00;;;;;;4952270;28;20283;-85
2022/11/30 03:29:42;;;;;;;89.10;34.07;;;8.50;1.00;;;;;;4957524;28;20220;-85
2022/11/30 03:32:07;;;;;;;80.30;34.37;;;8.50;1.00;;;;;;4960432;28;20219;-86
2022/11/30 03:34:33;;;;;;;84.07;32.27;;;8.50;1.00;;;;;;4964718;28;20283;-86
2022/11/30 03:36:58;;;;;;;81.80;32.00;;;8.50;1.00;;;;;;4960291;28;20177;-86
2022/11/30 03:39:24;;;;;;;79.73;32.60;;;8.60;1.00;;;;;;4959762;28;20196;-86
2022/11/30 03:41:50;;;;;;;81.30;32.00;;;8.50;1.00;;;;;;4960756;28;20221;-85
2022/11/30 03:44:16;;;;;;;83.47;32.27;;;8.50;1.00;;;;;;4953868;28;20236;-85
2022/11/30 03:46:42;;;;;;;88.57;32.80;;;8.50;1.00;;;;;;4960593;28;20437;-85
2022/11/30 03:49:08;;;;;;;76.00;32.57;;;8.50;1.00;;;;;;4957276;28;20484;-86
2022/11/30 03:51:34;;;;;;;92.90;33.33;;;8.60;1.00;;;;;;4960246;28;20200;-86
2022/11/30 03:53:59;;;;;;;83.90;31.45;;;8.50;1.00;;;;;;4959261;28;20204;-86
2022/11/30 03:56:25;;;;;;;80.70;30.93;;;8.50;1.00;;;;;;4961434;28;20197;-86
2022/11/30 03:58:50;;;;;;;70.10;29.90;;;8.60;1.00;;;;;;4963035;28;20217;-86
2022/11/30 04:01:22;;;;;;;75.33;30.63;;;8.50;1.00;;;;;;4957121;28;20224;-85
2022/11/30 04:03:49;;;;;;;65.45;30.02;;;8.50;1.00;;;;;;4959551;28;20244;-85
2022/11/30 04:06:16;;;;;;;79.22;31.42;;;8.50;1.00;;;;;;4959092;28;20238;-86
2022/11/30 04:08:42;;;;;;;69.10;30.47;;;8.60;1.00;;;;;;4958194;28;20719;-87
2022/11/30 04:11:08;;;;;;;65.43;29.53;;;8.60;1.00;;;;;;4957912;28;20433;-83
2022/11/30 04:13:35;;;;;;;72.17;29.23;;;8.60;1.00;;;;;;4966659;28;20197;-85
2022/11/30 04:16:01;;;;;;;66.07;28.45;;;8.60;1.00;;;;;;4959267;28;20754;-85
2022/11/30 04:18:28;;;;;;;65.18;30.10;;;8.60;1.00;;;;;;4957262;28;20177;-84
2022/11/30 04:20:56;;;;;;;60.73;30.17;;;8.60;1.00;;;;;;4959230;28;20185;-85
2022/11/30 04:23:22;;;;;;;66.30;29.05;;;8.60;1.00;;;;;;4959222;28;20443;-86
2022/11/30 04:25:48;;;;;;;65.73;28.97;;;8.60;1.00;;;;;;4960397;28;20205;-85
2022/11/30 04:28:15;;;;;;;63.43;27.53;;;8.60;1.00;;;;;;4957495;28;20559;-86
2022/11/30 04:30:41;;;;;;;68.43;33.07;;;8.70;1.00;;;;;;4971977;28;20499;-86
2022/11/30 04:33:07;;;;;;;78.43;32.77;;;8.70;1.00;;;;;;4959977;28;20435;-86
2022/11/30 04:35:32;;;;;;;74.23;33.10;;;8.70;1.00;;;;;;4957765;28;20466;-85
2022/11/30 04:37:59;;;;;;;57.70;28.70;;;8.80;1.00;;;;;;4958932;28;20191;-86
2022/11/30 04:40:25;;;;;;;49.20;28.50;;;8.70;1.00;;;;;;4958818;28;20444;-85
2022/11/30 04:42:50;;;;;;;50.50;27.60;;;8.80;1.00;;;;;;4959525;28;20936;-86
2022/11/30 04:45:16;;;;;;;52.40;28.40;;;8.80;1.00;;;;;;4959300;28;20224;-86
2022/11/30 04:47:41;;;;;;;41.67;24.73;;;8.80;1.00;;;;;;4959747;28;20184;-86
2022/11/30 04:50:08;;;;;;;45.20;26.00;;;8.80;1.00;;;;;;4959477;28;20217;-86
2022/11/30 04:52:33;;;;;;;51.37;26.93;;;8.80;1.00;;;;;;4956262;28;20189;-87
2022/11/30 04:54:59;;;;;;;49.03;28.73;;;8.70;1.00;;;;;;4958335;28;20467;-86
2022/11/30 04:57:24;;;;;;;39.83;23.70;;;8.80;1.00;;;;;;4958077;28;21007;-85
2022/11/30 04:59:50;;;;;;;44.17;27.27;;;8.80;1.00;;;;;;4959836;28;20551;-86
2022/11/30 05:02:16;;;;;;;44.73;26.83;;;8.80;1.00;;;;;;4953438;28;20181;-86
2022/11/30 05:04:42;;;;;;;42.43;25.50;;;8.80;1.00;;;;;;4949564;28;20460;-86
2022/11/30 05:07:07;;;;;;;47.17;26.97;;;8.80;1.00;;;;;;4958475;28;20189;-86
2022/11/30 05:09:33;;;;;;;45.17;24.60;;;8.80;1.00;;;;;;4958042;28;20205;-86
2022/11/30 05:11:58;;;;;;;44.00;24.87;;;8.70;1.00;;;;;;4960135;28;20200;-86
2022/11/30 05:14:24;;;;;;;44.73;25.40;;;8.70;1.00;;;;;;4953081;28;20185;-86
2022/11/30 05:16:50;;;;;;;40.93;22.87;;;8.70;1.00;;;;;;4970921;28;20173;-86
2022/11/30 05:19:16;;;;;;;40.80;24.33;;;8.70;1.00;;;;;;4971729;28;20484;-86
2022/11/30 05:21:42;;;;;;;43.57;24.47;;;8.70;1.00;;;;;;4960433;29;20193;-85
2022/11/30 05:24:07;;;;;;;45.00;26.50;;;8.60;1.00;;;;;;4965849;28;20177;-85
2022/11/30 05:26:34;;;;;;;43.03;25.37;;;8.60;1.00;;;;;;4956396;28;20209;-84
2022/11/30 05:29:00;;;;;;;42.00;23.98;;;8.60;1.00;;;;;;4958360;28;20226;-86
2022/11/30 05:31:25;;;;;;;44.97;24.63;;;8.60;1.00;;;;;;4959963;28;20245;-85
2022/11/30 05:33:52;;;;;;;43.80;24.00;;;8.60;1.00;;;;;;4959049;28;20197;-85
2022/11/30 05:36:18;;;;;;;40.33;23.17;;;8.50;1.00;;;;;;4953155;28;20291;-85
2022/11/30 05:38:44;;;;;;;45.15;25.25;;;8.50;1.00;;;;;;4960130;29;20189;-85
2022/11/30 05:41:10;;;;;;;37.53;23.17;;;8.50;1.00;;;;;;4943443;29;20287;-84
2022/11/30 05:43:35;;;;;;;44.17;24.87;;;8.50;1.00;;;;;;4961766;28;20444;-86
2022/11/30 05:46:02;;;;;;;45.10;24.63;;;8.50;1.00;;;;;;4968784;28;20228;-87
2022/11/30 05:48:28;;;;;;;46.17;24.40;;;8.50;1.00;;;;;;4962109;28;20193;-86
2022/11/30 05:50:54;;;;;;;43.47;26.60;;;8.60;1.00;;;;;;4962243;28;20197;-87
2022/11/30 05:53:20;;;;;;;45.37;26.20;;;8.60;1.00;;;;;;4956899;28;20483;-85
2022/11/30 05:55:45;;;;;;;49.57;25.10;;;8.60;1.00;;;;;;4957422;28;20837;-85
2022/11/30 05:58:11;;;;;;;43.13;24.67;;;8.60;1.00;;;;;;4958503;28;20188;-85
2022/11/30 06:00:36;;;;;;;46.23;24.60;;;8.60;1.00;;;;;;4959455;28;20596;-85
2022/11/30 06:03:02;;;;;;;40.50;23.70;;;8.60;1.00;;;;;;4959127;28;20191;-86
2022/11/30 06:05:28;;;;;;;46.57;25.07;;;8.60;1.00;;;;;;4958216;28;20288;-85
2022/11/30 06:07:54;;;;;;;43.90;25.20;;;8.60;1.00;;;;;;4958903;28;20239;-85
2022/11/30 06:10:20;;;;;;;46.10;25.33;;;8.60;1.00;;;;;;4941412;29;20221;-85
2022/11/30 06:12:47;;;;;;;45.20;26.00;;;8.60;1.00;;;;;;4958370;28;20487;-86
2022/11/30 06:15:12;;;;;;;43.55;25.90;;;8.60;1.00;;;;;;4956645;28;20459;-86
2022/11/30 06:17:38;;;;;;;40.33;25.37;;;8.60;1.00;;;;;;4959148;28;20599;-84
2022/11/30 06:20:05;;;;;;;41.67;25.03;;;8.60;1.00;;;;;;4957739;28;20192;-85
2022/11/30 06:22:30;;;;;;;40.55;24.17;;;8.70;1.00;;;;;;4947386;28;20189;-85
2022/11/30 06:24:56;;;;;;;42.13;24.60;;;8.70;1.00;;;;;;4960981;28;20641;-86
2022/11/30 06:27:21;;;;;;;49.77;27.50;;;8.70;1.00;;;;;;4958296;28;20641;-86
2022/11/30 06:29:47;;;;;;;45.23;25.40;;;8.70;1.00;;;;;;4960018;29;20248;-86
2022/11/30 06:32:12;;;;;;;44.53;26.53;;;8.70;1.00;;;;;;4961133;28;20189;-85
2022/11/30 06:34:38;;;;;;;38.60;24.17;;;8.70;1.00;;;;;;4961461;28;20275;-86
2022/11/30 06:37:03;;;;;;;46.33;25.80;;;8.60;1.00;;;;;;4957553;28;20213;-86
2022/11/30 06:39:29;;;;;;;42.83;27.53;;;8.60;1.00;;;;;;4958905;28;20531;-85
2022/11/30 06:41:54;;;;;;;49.60;25.73;;;8.60;1.00;;;;;;4958010;28;20191;-85
2022/11/30 06:44:20;;;;;;;48.13;28.50;;;8.60;1.00;;;;;;4966575;28;20189;-85
2022/11/30 06:46:45;;;;;;;47.70;27.87;;;8.60;1.00;;;;;;4954965;28;20188;-86
2022/11/30 06:49:11;;;;;;;46.30;28.37;;;8.50;1.00;;;;;;4959806;28;20216;-86
2022/11/30 06:51:38;;;;;;;44.53;25.97;;;8.50;1.00;;;;;;4957236;28;20732;-84
2022/11/30 06:54:05;;;;;;;44.77;25.90;;;8.50;1.00;;;;;;4955351;28;20196;-84
2022/11/30 06:56:30;;;;;;;43.20;25.13;;;8.50;1.00;;;;;;4955235;28;20472;-84
2022/11/30 06:58:56;;;;;;;47.70;26.97;;;8.40;1.00;;;;;;4958550;29;20940;-84
2022/11/30 07:01:22;;;;;;;43.13;24.00;;;8.40;1.00;;;;;;4948809;28;20189;-84
2022/11/30 07:03:47;;;;;;;39.37;24.70;;;8.40;1.00;;;;;;4963433;28;20453;-84
2022/11/30 07:06:13;;;;;;;45.57;25.70;;;8.40;1.00;;;;;;4960035;28;20217;-84
2022/11/30 07:08:39;;;;;;;46.23;25.40;;;8.40;1.00;;;;;;4959211;29;20193;-84
2022/11/30 07:11:06;;;;;;;43.67;23.23;;;8.40;1.00;;;;;;4960506;29;20428;-84
2022/11/30 07:13:32;;;;;;;39.30;22.83;;;8.40;1.00;;;;;;4959858;29;20460;-83
2022/11/30 07:15:58;;;;;;;40.60;22.93;;;8.40;1.00;;;;;;4960690;28;20209;-84
2022/11/30 07:18:23;;;;;;;39.40;23.40;;;8.40;1.00;;;;;;4960726;28;20223;-84
2022/11/30 07:20:49;;;;;;;38.40;25.00;;;8.40;1.00;;;;;;4960164;29;20195;-84
2022/11/30 07:26:08;;;;;;;48.40;26.65;;;8.40;1.00;;;;;;4955054;28;20215;-84
2022/11/30 07:28:35;;;;;;;46.10;26.70;;;8.40;99.90;;;;;;4941933;28;20204;-85
2022/11/30 07:31:20;;;;;;;49.35;26.42;;;8.40;99.90;;;;;;4960233;28;20535;-84
2022/11/30 07:33:47;;;;;;;42.65;25.77;;;8.40;99.90;;;;;;4955806;28;20208;-85
2022/11/30 07:36:14;;;;;;;42.40;25.38;;;8.40;99.90;;;;;;4958176;28;20505;-84
2022/11/30 07:38:39;;;;;;;42.30;26.40;;;8.40;99.90;;;;;;4958963;28;20193;-84
2022/11/30 07:41:06;;;;;;;38.93;23.90;;;8.40;99.90;;;;;;4951640;28;20286;-83
2022/11/30 07:43:31;;;;;;;40.25;24.83;;;8.40;99.90;;;;;;4948789;28;21055;-82
2022/11/30 07:45:57;;;;;;;39.00;24.47;;;8.40;99.90;;;;;;4953190;28;20205;-84
2022/11/30 07:48:23;;;;;;;35.37;22.50;;;8.40;99.90;;;;;;4955394;28;20185;-84
2022/11/30 07:50:48;;;;;;;38.03;22.60;;;8.30;99.90;;;;;;4950813;28;20212;-84
2022/11/30 07:53:15;;;;;;;38.50;24.97;;;8.30;99.90;;;;;;4958177;28;20195;-83
2022/11/30 07:55:41;;;;;;;36.50;23.23;;;8.40;99.90;;;;;;4940677;28;20208;-83
2022/11/30 07:58:08;;;;;;;34.92;22.88;;;8.40;99.90;;;;;;4954355;28;20213;-84
2022/11/30 08:00:35;;;;;;;41.97;24.67;;;8.50;99.90;;;;;;4952351;28;20292;-85
2022/11/30 08:03:00;;;;;;;33.97;22.48;;;8.50;99.90;;;;;;4939150;28;20181;-83
2022/11/30 08:05:26;;;;;;;40.80;24.53;;;8.50;99.90;;;;;;4957845;28;20228;-83
2022/11/30 08:07:52;;;;;;;37.90;23.13;;;8.60;99.90;;;;;;4942322;28;20277;-82
2022/11/30 08:10:22;;;;;;;37.95;23.00;;;8.60;99.90;;;;;;4953310;28;20295;-83
2022/11/30 08:12:48;;;;;;;39.00;24.93;;;8.70;99.90;;;;;;4953570;28;20181;-84
2022/11/30 08:15:14;;;;;;;43.67;24.97;;;8.70;42.40;;;;;;4940062;29;20455;-85
2022/11/30 08:17:40;;;;;;;43.10;25.80;;;8.80;1.00;;;;;;4956847;29;20265;-84
2022/11/30 08:20:07;;;;;;;41.27;24.97;;;8.90;1.00;;;;;;4948143;28;20453;-84
2022/11/30 08:22:33;;;;;;;42.03;26.37;;;9.00;1.00;;;;;;4955271;28;20475;-84
2022/11/30 08:24:59;;;;;;;37.03;22.60;;;9.00;1.00;;;;;;4954776;28;20555;-84
2022/11/30 08:27:25;;;;;;;40.57;26.17;;;9.00;1.00;;;;;;4942366;28;20479;-82
2022/11/30 08:29:54;;;;;;;39.63;24.63;;;9.00;1.00;;;;;;4955824;28;20243;-84
2022/11/30 08:32:20;;;;;;;39.80;25.27;;;9.00;99.90;;;;;;4956979;28;20532;-85
2022/11/30 08:34:48;;;;;;;37.87;24.07;;;9.00;99.90;;;;;;4953971;28;20201;-84
2022/11/30 08:37:14;;;;;;;38.63;24.07;;;8.90;99.90;;;;;;4955598;28;20236;-84
2022/11/30 08:39:39;;;;;;;39.10;24.23;;;8.90;99.90;;;;;;4951136;28;20437;-85
2022/11/30 08:42:05;;;;;;;38.33;24.03;;;8.80;1.00;;;;;;4957525;28;20223;-84
2022/11/30 08:44:30;;;;;;;38.40;23.97;;;8.80;1.00;;;;;;4958770;28;20204;-83
2022/11/30 08:47:13;;;;;;;46.47;25.77;;;8.80;1.00;;;;;;4959143;28;20193;-84
2022/11/30 08:49:39;;;;;;;38.97;24.43;;;8.80;1.00;;;;;;4958084;28;20292;-84
2022/11/30 08:52:04;;;;;;;45.50;27.10;;;8.80;1.00;;;;;;4947986;28;20472;-86
2022/11/30 08:54:30;;;;;;;41.87;26.53;;;8.80;1.00;;;;;;4961181;28;20181;-84
2022/11/30 08:56:55;;;;;;;41.70;25.03;;;8.80;1.00;;;;;;4963798;28;20192;-83
2022/11/30 08:59:21;;;;;;;41.57;26.40;;;8.80;1.00;;;;;;4961709;28;20685;-83
2022/11/30 09:01:46;;;;;;;40.93;25.57;;;8.80;1.00;;;;;;4956076;28;20706;-83
2022/11/30 09:04:12;;;;;;;41.83;25.20;;;8.80;1.00;;;;;;4952970;28;20188;-83
2022/11/30 09:06:38;;;;;;;42.93;25.93;;;8.90;1.00;;;;;;4952153;28;20209;-83
2022/11/30 09:09:03;;;;;;;45.00;25.73;;;9.00;1.00;;;;;;4954139;28;20223;-82
2022/11/30 09:11:31;;;;;;;42.10;25.00;;;9.10;1.00;;;;;;4962920;28;20535;-82
2022/11/30 09:13:59;;;;;;;49.83;28.57;;;9.20;1.00;;;;;;4962905;28;20188;-83
2022/11/30 09:16:25;;;;;;;43.17;27.13;;;9.20;1.00;;;;;;4965711;28;20456;-82
2022/11/30 09:18:51;;;;;;;43.33;28.43;;;9.30;1.00;;;;;;4964460;28;20855;-82
2022/11/30 09:21:20;;;;;;;40.70;24.87;;;9.30;1.00;;;;;;4963067;28;20531;-82
2022/11/30 09:23:46;;;;;;;36.70;24.73;;;9.40;1.00;;;;;;4962079;28;21247;-82
2022/11/30 09:26:16;;;;;;;38.57;24.03;;;9.40;1.00;;;;;;4961767;28;20468;-83
2022/11/30 09:28:42;;;;;;;37.07;24.00;;;9.40;1.00;;;;;;4956405;28;20990;-82
2022/11/30 09:31:14;;;;;;;34.80;23.40;;;9.40;1.00;;;;;;4963545;28;20480;-82
2022/11/30 09:33:40;;;;;;;45.93;25.77;;;9.40;1.00;;;;;;4949542;28;20519;-81
2022/11/30 09:36:08;;;;;;;42.93;24.70;;;9.40;99.90;;;;;;4964627;28;20491;-83
2022/11/30 09:38:34;;;;;;;36.23;22.63;;;9.40;99.90;;;;;;4952047;28;20220;-83
2022/11/30 09:41:04;;;;;;;35.53;22.80;;;9.30;99.90;;;;;;4954472;28;20850;-83
2022/11/30 09:44:13;;;;;;;35.77;23.27;;;9.20;99.90;;;;;;4953840;28;20436;-82
2022/11/30 09:47:03;;;;;;;36.20;22.20;;;9.20;99.90;;;;;;4952338;28;20853;-83
2022/11/30 09:49:33;;;;;;;37.53;22.97;;;9.10;61.50;;;;;;4952332;28;20479;-83
2022/11/30 09:52:03;;;;;;;36.83;24.33;;;9.10;99.90;;;;;;4961855;28;20447;-82
2022/11/30 09:54:43;;;;;;;36.20;23.03;;;9.00;99.90;;;;;;4955409;28;20436;-82
2022/11/30 09:57:17;;;;;;;36.63;24.27;;;9.10;99.90;;;;;;4966208;28;20439;-82
2022/11/30 09:59:50;;;;;;;41.20;25.10;;;9.00;99.90;;;;;;4950428;28;20435;-83
2022/11/30 10:02:17;;;;;;;41.00;26.13;;;8.90;1.00;;;;;;4964255;28;20443;-82
2022/11/30 10:04:43;;;;;;;38.53;26.70;;;8.90;1.00;;;;;;4948533;28;20472;-83
2022/11/30 10:07:47;;;;;;;43.30;26.20;;;8.90;26.60;;;;;;4949469;29;20831;-83
2022/11/30 10:10:26;;;;;;;38.93;24.00;;;8.80;99.90;;;;;;4939301;29;20524;-82
2022/11/30 10:13:24;;;;;;;37.23;22.90;;;8.80;99.90;;;;;;4920585;29;20484;-82
2022/11/30 10:16:26;;;;;;;40.93;22.97;;;8.70;46.70;;;;;;4943300;29;20437;-84
2022/11/30 10:19:29;;;;;;;38.80;23.23;;;8.60;99.90;;;;;;4959323;29;20484;-82
2022/11/30 10:22:21;;;;;;;43.77;25.10;;;8.60;99.90;;;;;;4962727;29;20173;-82
2022/11/30 10:25:29;;;;;;;39.43;22.10;;;8.60;99.90;;;;;;4958557;28;20441;-83
2022/11/30 10:28:06;;;;;;;35.57;22.90;;;8.60;99.90;;;;;;4917617;29;20438;-84
2022/11/30 10:30:35;;;;;;;40.38;24.65;;;8.60;1.00;;;;;;4931085;29;20479;-84
2022/11/30 10:33:14;;;;;;;42.15;26.13;;;8.70;1.00;;;;;;4952440;29;20209;-83
2022/11/30 10:35:44;;;;;;;41.00;25.10;;;8.70;1.00;;;;;;4955590;28;20215;-82
2022/11/30 10:38:20;;;;;;;40.23;23.53;;;8.80;1.00;;;;;;4967081;28;20256;-83
2022/11/30 10:41:02;;;;;;;42.00;28.20;;;8.80;99.90;;;;;;4955806;28;20523;-82
2022/11/30 10:43:53;;;;;;;43.57;26.17;;;8.90;99.90;;;;;;4966714;28;20435;-84
2022/11/30 10:46:29;;;;;;;43.80;26.87;;;9.00;99.90;;;;;;4964742;28;20460;-84
2022/11/30 10:49:05;;;;;;;44.53;27.43;;;9.00;99.90;;;;;;4961744;28;20491;-84
2022/11/30 10:51:33;;;;;;;44.00;26.63;;;9.00;99.90;;;;;;4960249;28;20441;-84
2022/11/30 10:53:59;;;;;;;42.13;25.58;;;9.10;99.90;;;;;;4969086;28;20436;-84
2022/11/30 10:56:25;;;;;;;38.90;24.23;;;9.10;1.00;;;;;;4963267;28;20197;-83
2022/11/30 10:59:21;;;;;;;36.63;23.80;;;9.10;1.00;;;;;;4973561;28;20419;-84
2022/11/30 11:01:47;;;;;;;39.47;24.73;;;9.10;1.00;;;;;;4964983;28;20185;-84
2022/11/30 11:04:19;;;;;;;38.83;24.50;;;9.10;1.00;;;;;;4972741;28;20234;-83
2022/11/30 11:06:45;;;;;;;40.23;24.90;;;9.20;45.50;;;;;;4957590;28;20566;-83
2022/11/30 11:09:33;;;;;;;43.00;27.10;;;9.20;75.20;;;;;;4959474;28;20522;-85
2022/11/30 11:12:26;;;;;;;46.87;28.90;;;9.30;55.70;;;;;;4966790;28;20946;-84
2022/11/30 11:15:23;;;;;;;44.50;29.43;;;9.30;58.70;;;;;;4955243;28;20466;-85
2022/11/30 11:17:50;;;;;;;43.03;25.50;;;9.40;4.70;;;;;;4942028;28;20441;-84
2022/11/30 11:20:34;;;;;;;41.90;24.33;;;9.50;14.50;;;;;;4967946;28;20444;-84
2022/11/30 11:23:01;;;;;;;40.13;24.47;;;9.60;1.00;;;;;;4972502;28;20412;-85
2022/11/30 11:25:35;;;;;;;38.73;24.70;;;9.70;1.00;;;;;;4962002;28;20891;-83
2022/11/30 11:28:17;;;;;;;43.00;25.27;;;9.70;99.90;;;;;;4942737;29;20479;-84
2022/11/30 11:30:43;;;;;;;41.00;24.60;;;9.80;99.90;;;;;;4955262;28;20475;-85
2022/11/30 11:33:11;;;;;;;44.80;24.80;;;9.80;99.90;;;;;;4971219;28;20442;-85
2022/11/30 11:35:46;;;;;;;38.80;25.57;;;9.80;99.90;;;;;;4966336;28;20209;-84
2022/11/30 11:38:21;;;;;;;40.70;24.93;;;9.90;99.90;;;;;;4947396;28;20424;-85
2022/11/30 11:41:13;;;;;;;39.77;24.77;;;9.90;90.80;;;;;;4969791;28;20455;-85
2022/11/30 11:44:00;;;;;;;40.00;24.30;;;9.90;1.00;;;;;;4962115;28;20451;-84
2022/11/30 11:46:26;;;;;;;40.10;24.07;;;9.80;1.00;;;;;;4970924;28;20494;-85
2022/11/30 11:49:17;;;;;;;39.10;25.07;;;9.80;1.00;;;;;;4967478;28;20439;-85
2022/11/30 11:51:44;;;;;;;38.03;24.73;;;9.90;1.00;;;;;;4961486;28;20428;-85
2022/11/30 11:54:26;;;;;;;44.40;25.53;;;9.80;1.00;;;;;;4960097;28;21127;-83
2022/11/30 11:56:53;;;;;;;38.00;24.40;;;9.80;1.00;;;;;;4970180;28;20432;-84
2022/11/30 11:59:40;;;;;;;41.20;25.77;;;9.90;1.00;;;;;;4949009;29;20443;-83
2022/11/30 12:02:17;;;;;;;40.27;25.67;;;9.90;1.00;;;;;;4945154;29;20483;-84
2022/11/30 12:04:55;;;;;;;43.73;25.50;;;9.80;1.00;;;;;;4963281;28;20470;-84
2022/11/30 12:07:28;;;;;;;40.10;22.97;;;9.80;1.00;;;;;;4977862;28;20820;-85
2022/11/30 12:10:14;;;;;;;39.70;24.73;;;9.80;1.00;;;;;;4970668;28;20491;-84
2022/11/30 12:12:39;;;;;;;42.73;26.70;;;9.80;1.00;;;;;;4930692;28;20421;-85
2022/11/30 12:15:11;;;;;;;45.03;25.97;;;9.80;1.00;;;;;;4961023;28;20451;-85
2022/11/30 12:17:45;;;;;;;41.80;23.60;;;9.80;19.90;;;;;;4955993;29;20196;-83
2022/11/30 12:20:37;;;;;;;40.00;25.70;;;9.90;1.00;;;;;;4947274;29;20480;-84
2022/11/30 12:23:45;;;;;;;43.60;25.70;;;9.90;1.00;;;;;;4923985;29;20433;-84
2022/11/30 12:26:29;;;;;;;43.13;25.90;;;9.90;1.00;;;;;;4941158;29;20976;-85
2022/11/30 12:29:24;;;;;;;40.40;25.27;;;9.90;1.00;;;;;;4941296;29;20441;-85
2022/11/30 12:31:56;;;;;;;38.20;23.57;;;10.00;1.00;;;;;;4941035;29;20540;-84
2022/11/30 12:34:49;;;;;;;39.50;24.70;;;10.00;1.00;;;;;;4952968;28;20459;-84
2022/11/30 12:37:39;;;;;;;40.90;25.13;;;10.00;1.00;;;;;;4970582;28;20511;-85
2022/11/30 12:40:28;;;;;;;38.53;24.73;;;10.00;99.90;;;;;;4977263;28;20475;-85
2022/11/30 12:43:12;;;;;;;36.40;23.57;;;10.10;99.90;;;;;;4967496;28;20455;-83
2022/11/30 12:45:48;;;;;;;43.37;23.73;;;10.10;99.90;;;;;;4963059;28;20496;-84
2022/11/30 12:48:31;;;;;;;40.53;24.13;;;10.10;99.90;;;;;;4946085;28;20535;-83
2022/11/30 12:51:54;;;;;;;42.70;24.97;;;10.10;99.90;;;;;;4956836;28;20479;-85
2022/11/30 12:54:47;;;;;;;41.20;23.30;;;10.10;99.90;;;;;;4895772;29;20451;-83
2022/11/30 12:57:29;;;;;;;37.30;23.70;;;10.20;62.70;;;;;;4912658;29;21159;-84
2022/11/30 13:00:13;;;;;;;46.17;24.17;;;10.20;99.90;;;;;;4953748;28;20530;-83
2022/11/30 13:02:56;;;;;;;36.23;23.67;;;10.20;99.90;;;;;;4963304;28;20433;-83